createdAt,value
2023-03-03T00:01:09.272Z,97.43
2023-03-03T00:03:36.692Z,104.88
2023-03-03T00:06:09.434Z,91.20
2023-03-03T00:08:37.183Z,100.47
2023-03-03T00:11:06.953Z,93.45
2023-03-03T00:13:48.113Z,105.50
2023-03-03T00:16:28.022Z,92.57
2023-03-03T00:18:56.346Z,95.72
2023-03-03T00:21:29.550Z,96.97
2023-03-03T00:24:14.668Z,84.50
2023-03-03T00:26:50.342Z,80.22
2023-03-03T00:29:29.615Z,75.18
2023-03-03T00:32:31.793Z,87.18
2023-03-03T00:35:24.451Z,85.85
2023-03-03T00:38:00.026Z,80.80
2023-03-03T00:40:39.850Z,73.93
2023-03-03T00:43:34.502Z,69.15
2023-03-03T00:46:02.118Z,90.38
2023-03-03T00:48:38.200Z,78.05
2023-03-03T00:51:35.801Z,67.63
2023-03-03T00:54:03.684Z,75.00
2023-03-03T00:56:31.186Z,69.13
2023-03-03T00:58:58.744Z,78.37
2023-03-03T01:01:26.149Z,81.63
2023-03-03T01:03:53.711Z,75.83
2023-03-03T01:06:21.227Z,76.23
2023-03-03T01:08:48.803Z,76.78
2023-03-03T01:11:23.235Z,73.72
2023-03-03T01:13:53.153Z,84.80
2023-03-03T01:16:21.138Z,89.17
2023-03-03T01:18:48.904Z,94.57
2023-03-03T01:21:16.214Z,85.07
2023-03-03T01:23:43.792Z,95.93
2023-03-03T01:26:11.139Z,89.30
2023-03-03T01:28:38.734Z,99.47
2023-03-03T01:31:06.773Z,92.60
2023-03-03T01:33:36.571Z,95.68
2023-03-03T01:36:05.045Z,92.07
2023-03-03T01:38:35.921Z,87.97
2023-03-03T01:41:04.172Z,88.95
2023-03-03T01:43:33.873Z,91.87
2023-03-03T01:46:01.163Z,98.87
2023-03-03T01:48:44.816Z,90.47
2023-03-03T01:51:27.365Z,99.07
2023-03-03T01:54:00.920Z,99.73
2023-03-03T01:56:29.773Z,108.30
2023-03-03T01:59:07.395Z,98.17
2023-03-03T02:01:35.872Z,83.67
2023-03-03T02:04:04.276Z,90.40
2023-03-03T02:06:40.403Z,104.03
2023-03-03T02:10:05.732Z,87.03
2023-03-03T02:12:40.959Z,84.90
2023-03-03T02:15:32.296Z,87.77
2023-03-03T02:18:07.414Z,98.67
2023-03-03T02:20:41.102Z,91.60
2023-03-03T02:23:34.560Z,85.68
2023-03-03T02:26:15.492Z,81.93
2023-03-03T02:28:43.867Z,97.72
2023-03-03T02:31:17.654Z,92.00
2023-03-03T02:33:49.128Z,98.93
2023-03-03T02:36:34.561Z,93.07
2023-03-03T02:39:23.944Z,107.87
2023-03-03T02:42:12.870Z,105.13
2023-03-03T02:44:40.279Z,97.13
2023-03-03T02:47:08.057Z,80.67
2023-03-03T02:49:36.801Z,83.40
2023-03-03T02:52:09.946Z,84.03
2023-03-03T02:54:38.006Z,80.77
2023-03-03T02:57:06.361Z,87.93
2023-03-03T02:59:33.637Z,96.80
2023-03-03T03:02:01.544Z,102.67
2023-03-03T03:04:28.902Z,89.53
2023-03-03T03:06:57.106Z,104.47
2023-03-03T03:09:25.950Z,97.47
2023-03-03T03:11:53.666Z,96.17
2023-03-03T03:14:21.021Z,91.47
2023-03-03T03:16:48.721Z,95.77
2023-03-03T03:19:16.241Z,103.10
2023-03-03T03:21:43.900Z,97.00
2023-03-03T03:24:11.290Z,123.13
2023-03-03T03:26:38.915Z,113.63
2023-03-03T03:29:07.738Z,107.30
2023-03-03T03:31:35.368Z,92.10
2023-03-03T03:34:02.715Z,94.97
2023-03-03T03:36:30.288Z,89.67
2023-03-03T03:38:57.567Z,86.87
2023-03-03T03:41:25.152Z,86.63
2023-03-03T03:43:52.445Z,101.10
2023-03-03T03:46:20.048Z,106.53
2023-03-03T03:48:47.394Z,99.77
2023-03-03T03:51:15.128Z,93.60
2023-03-03T03:53:42.397Z,117.20
2023-03-03T03:56:09.987Z,113.30
2023-03-03T03:58:37.287Z,121.23
2023-03-03T04:01:08.144Z,118.47
2023-03-03T04:03:36.145Z,119.40
2023-03-03T04:06:03.883Z,113.00
2023-03-03T04:08:31.156Z,115.37
2023-03-03T04:10:58.880Z,108.07
2023-03-03T04:13:29.017Z,98.87
2023-03-03T04:15:56.599Z,98.27
2023-03-03T04:18:23.929Z,96.83
2023-03-03T04:20:52.848Z,84.37
2023-03-03T04:23:20.631Z,115.20
2023-03-03T04:25:49.689Z,132.17
2023-03-03T04:28:17.778Z,122.90
2023-03-03T04:30:45.895Z,120.00
2023-03-03T04:33:13.534Z,105.60
2023-03-03T04:35:41.195Z,140.13
2023-03-03T04:38:08.612Z,137.27
2023-03-03T04:40:36.242Z,126.13
2023-03-03T04:43:04.370Z,119.97
2023-03-03T04:45:32.037Z,104.03
2023-03-03T04:47:59.475Z,106.77
2023-03-03T04:50:27.501Z,105.07
2023-03-03T04:52:55.275Z,102.13
2023-03-03T04:55:22.861Z,107.70
2023-03-03T04:57:50.119Z,102.73
2023-03-03T05:00:18.647Z,118.90
2023-03-03T05:02:49.078Z,127.37
2023-03-03T05:05:16.913Z,130.63
2023-03-03T05:07:44.163Z,138.40
2023-03-03T05:10:12.104Z,142.90
2023-03-03T05:12:39.663Z,135.13
2023-03-03T05:15:08.164Z,115.20
2023-03-03T05:17:35.671Z,115.87
2023-03-03T05:20:05.754Z,135.43
2023-03-03T05:22:33.028Z,113.30
2023-03-03T05:25:00.644Z,106.13
2023-03-03T05:27:27.841Z,111.60
2023-03-03T05:29:55.619Z,132.50
2023-03-03T05:32:23.104Z,149.47
2023-03-03T05:34:52.605Z,166.33
2023-03-03T05:37:19.929Z,190.53
2023-03-03T05:39:47.716Z,168.83
2023-03-03T05:42:15.188Z,147.83
2023-03-03T05:44:43.068Z,171.87
2023-03-03T05:47:10.936Z,185.30
2023-03-03T05:49:38.571Z,152.53
2023-03-03T05:52:05.961Z,138.73
2023-03-03T05:54:33.488Z,173.07
2023-03-03T05:57:00.852Z,150.40
2023-03-03T05:59:28.401Z,139.90
2023-03-03T06:01:55.752Z,156.57
2023-03-03T06:04:23.380Z,151.17
2023-03-03T06:06:51.555Z,128.10
2023-03-03T06:09:19.358Z,184.20
2023-03-03T06:11:46.633Z,189.90
2023-03-03T06:14:14.249Z,179.93
2023-03-03T06:16:41.645Z,187.80
2023-03-03T06:19:09.239Z,175.90
2023-03-03T06:21:36.459Z,174.60
2023-03-03T06:24:04.228Z,162.67
2023-03-03T06:26:33.049Z,160.17
2023-03-03T06:29:01.611Z,159.67
2023-03-03T06:31:28.965Z,156.73
2023-03-03T06:33:56.610Z,188.33
2023-03-03T06:36:25.506Z,201.87
2023-03-03T06:38:53.130Z,191.73
2023-03-03T06:41:20.530Z,181.60
2023-03-03T06:43:48.075Z,190.10
2023-03-03T06:46:15.467Z,177.90
2023-03-03T06:48:43.188Z,189.77
2023-03-03T06:51:30.891Z,182.03
2023-03-03T06:54:06.717Z,190.00
2023-03-03T06:56:37.620Z,183.63
2023-03-03T06:59:18.617Z,197.33
2023-03-03T07:01:50.657Z,195.50
2023-03-03T07:04:33.820Z,201.83
2023-03-03T07:07:15.254Z,203.47
2023-03-03T07:09:50.563Z,215.17
2023-03-03T07:12:30.656Z,203.47
2023-03-03T07:15:20.447Z,199.00
2023-03-03T07:17:53.179Z,210.10
2023-03-03T07:20:35.381Z,203.37
2023-03-03T07:23:31.578Z,199.67
2023-03-03T07:25:59.179Z,196.03
2023-03-03T07:28:29.536Z,192.77
2023-03-03T07:30:58.409Z,183.47
2023-03-03T07:33:28.821Z,208.70
2023-03-03T07:35:59.819Z,195.10
2023-03-03T07:38:40.384Z,197.50
2023-03-03T07:41:21.054Z,186.70
2023-03-03T07:43:55.839Z,180.10
2023-03-03T07:46:43.725Z,175.13
2023-03-03T07:49:40.137Z,173.67
2023-03-03T07:52:33.972Z,166.87
2023-03-03T07:55:23.649Z,168.87
2023-03-03T07:57:54.896Z,156.93
2023-03-03T08:00:28.627Z,148.90
2023-03-03T08:03:04.983Z,160.37
2023-03-03T08:05:41.899Z,148.33
2023-03-03T08:08:36.975Z,147.57
2023-03-03T08:11:06.182Z,146.10
2023-03-03T08:13:38.574Z,142.03
2023-03-03T08:16:11.447Z,133.20
2023-03-03T08:18:50.197Z,144.23
2023-03-03T08:21:24.318Z,124.27
2023-03-03T08:23:53.787Z,121.70
2023-03-03T08:26:23.701Z,130.10
2023-03-03T08:28:52.745Z,132.23
2023-03-03T08:31:38.155Z,125.67
2023-03-03T08:34:08.123Z,138.30
2023-03-03T08:36:35.434Z,130.87
2023-03-03T08:39:05.201Z,127.80
2023-03-03T08:41:32.627Z,126.13
2023-03-03T08:44:00.257Z,108.90
2023-03-03T08:46:28.742Z,96.57
2023-03-03T08:48:56.705Z,108.13
2023-03-03T08:51:24.917Z,118.33
2023-03-03T08:53:52.714Z,112.20
2023-03-03T08:56:20.046Z,106.18
2023-03-03T08:59:01.841Z,102.40
2023-03-03T09:01:31.704Z,96.73
2023-03-03T09:03:59.937Z,96.00
2023-03-03T09:06:27.374Z,89.93
2023-03-03T09:08:55.570Z,92.90
2023-03-03T09:11:27.751Z,88.03
2023-03-03T09:14:21.967Z,89.80
2023-03-03T09:16:53.497Z,85.63
2023-03-03T09:19:30.958Z,86.47
2023-03-03T09:22:19.069Z,84.17
2023-03-03T09:24:49.884Z,88.77
2023-03-03T09:27:37.258Z,83.97
2023-03-03T09:30:40.680Z,88.20
2023-03-03T09:33:33.467Z,77.70
2023-03-03T09:36:29.118Z,91.00
2023-03-03T09:39:00.726Z,74.30
2023-03-03T09:42:18.965Z,71.15
2023-03-03T09:45:04.744Z,84.65
2023-03-03T09:48:17.639Z,73.90
2023-03-03T09:51:09.132Z,81.63
2023-03-03T09:53:49.389Z,74.23
2023-03-03T09:56:21.395Z,84.32
2023-03-03T09:59:25.605Z,76.17
2023-03-03T10:02:20.560Z,68.80
2023-03-03T10:05:28.356Z,73.17
2023-03-03T10:08:21.763Z,71.47
2023-03-03T10:11:02.137Z,83.63
2023-03-03T10:13:54.659Z,72.60
2023-03-03T10:17:24.439Z,80.80
2023-03-03T10:20:09.956Z,75.78
2023-03-03T10:22:43.476Z,66.00
2023-03-03T10:25:47.140Z,73.93
2023-03-03T10:28:54.636Z,68.82
2023-03-03T10:31:59.620Z,73.83
2023-03-03T10:34:50.931Z,71.85
2023-03-03T10:37:42.768Z,66.15
2023-03-03T10:40:33.126Z,75.03
2023-03-03T10:43:09.284Z,68.88
2023-03-03T10:46:35.211Z,60.53
2023-03-03T10:49:19.793Z,77.37
2023-03-03T10:52:28.316Z,67.63
2023-03-03T10:55:04.762Z,73.32
2023-03-03T10:57:56.848Z,76.47
2023-03-03T11:00:52.611Z,79.43
2023-03-03T11:03:35.247Z,73.93
2023-03-03T11:06:22.374Z,72.93
2023-03-03T11:09:04.069Z,65.93
2023-03-03T11:11:55.812Z,69.13
2023-03-03T11:14:52.812Z,64.13
2023-03-03T11:17:37.720Z,63.38
2023-03-03T11:20:20.982Z,64.97
2023-03-03T11:23:27.618Z,61.00
2023-03-03T11:26:27.199Z,66.23
2023-03-03T11:29:39.267Z,62.53
2023-03-03T11:32:53.386Z,67.80
2023-03-03T11:35:50.290Z,71.30
2023-03-03T11:39:02.873Z,75.95
2023-03-03T11:41:36.465Z,65.80
2023-03-03T11:44:44.765Z,65.28
2023-03-03T11:47:31.772Z,68.13
2023-03-03T11:50:33.464Z,76.45
2023-03-03T11:53:44.750Z,70.17
2023-03-03T11:56:29.106Z,66.18
2023-03-03T11:59:14.354Z,61.75
2023-03-03T12:02:00.702Z,68.47
2023-03-03T12:04:40.798Z,63.70
2023-03-03T12:07:49.566Z,60.47
2023-03-03T12:10:42.493Z,54.97
2023-03-03T12:13:49.938Z,55.83
2023-03-03T12:16:44.612Z,45.67
2023-03-03T12:19:42.957Z,52.40
2023-03-03T12:22:34.150Z,50.13
2023-03-03T12:25:49.772Z,50.50
2023-03-03T12:28:27.618Z,49.00
2023-03-03T12:31:13.591Z,52.20
2023-03-03T12:33:56.944Z,51.17
2023-03-03T12:37:06.404Z,58.72
2023-03-03T12:39:57.972Z,58.95
2023-03-03T12:42:51.548Z,58.80
2023-03-03T12:46:06.824Z,54.03
2023-03-03T12:48:47.749Z,52.00
2023-03-03T12:51:50.620Z,55.22
2023-03-03T12:54:58.857Z,58.83
2023-03-03T12:57:56.087Z,68.50
2023-03-03T13:00:56.873Z,58.42
2023-03-03T13:03:59.427Z,63.50
2023-03-03T13:06:45.812Z,55.50
2023-03-03T13:09:46.721Z,48.77
2023-03-03T13:12:38.910Z,52.57
2023-03-03T13:15:54.856Z,46.87
2023-03-03T13:18:56.102Z,42.95
2023-03-03T13:21:47.447Z,41.10
2023-03-03T13:24:35.660Z,43.83
2023-03-03T13:27:16.944Z,44.20
2023-03-03T13:30:08.055Z,47.20
2023-03-03T13:32:49.325Z,45.17
2023-03-03T13:35:44.916Z,52.90
2023-03-03T13:38:33.405Z,48.10
2023-03-03T13:41:38.189Z,49.50
2023-03-03T13:44:35.795Z,48.03
2023-03-03T13:47:31.514Z,47.70
2023-03-03T13:50:30.845Z,47.13
2023-03-03T13:53:27.523Z,45.10
2023-03-03T13:56:23.621Z,41.05
2023-03-03T13:59:01.909Z,53.97
2023-03-03T14:01:58.269Z,54.30
2023-03-03T14:04:48.385Z,51.15
2023-03-03T14:07:33.812Z,52.50
2023-03-03T14:10:18.436Z,51.08
2023-03-03T14:13:25.336Z,52.17
2023-03-03T14:16:52.461Z,58.83
2023-03-03T14:19:32.896Z,47.67
2023-03-03T14:22:24.199Z,49.97
2023-03-03T14:25:03.976Z,54.40
2023-03-03T14:27:40.762Z,62.23
2023-03-03T14:30:23.919Z,56.17
2023-03-03T14:33:09.542Z,52.80
2023-03-03T14:36:00.953Z,45.13
2023-03-03T14:38:34.706Z,48.13
2023-03-03T14:41:35.145Z,53.70
2023-03-03T14:44:27.657Z,49.72
2023-03-03T14:47:22.809Z,45.95
2023-03-03T14:49:51.858Z,46.72
2023-03-03T14:52:23.960Z,48.10
2023-03-03T14:55:00.483Z,42.97
2023-03-03T14:57:46.376Z,45.40
2023-03-03T15:00:15.030Z,47.67
2023-03-03T15:03:16.504Z,48.47
2023-03-03T15:05:58.079Z,55.37
2023-03-03T15:08:34.983Z,64.83
2023-03-03T15:11:17.842Z,59.07
2023-03-03T15:13:45.812Z,50.97
2023-03-03T15:16:23.948Z,49.97
2023-03-03T15:19:43.663Z,49.13
2023-03-03T15:22:35.518Z,49.90
2023-03-03T15:25:58.809Z,51.33
2023-03-03T15:28:59.477Z,50.03
2023-03-03T15:31:48.503Z,53.53
2023-03-03T15:34:39.653Z,51.87
2023-03-03T15:37:34.047Z,53.53
2023-03-03T15:40:30.459Z,58.35
2023-03-03T15:43:12.157Z,54.97
2023-03-03T15:46:06.549Z,50.78
2023-03-03T15:48:45.490Z,57.83
2023-03-03T15:51:31.380Z,46.17
2023-03-03T15:54:07.651Z,49.77
2023-03-03T15:56:58.674Z,51.07
2023-03-03T15:59:42.383Z,51.67
2023-03-03T16:02:38.834Z,49.70
2023-03-03T16:06:02.601Z,55.17
2023-03-03T16:08:56.160Z,53.13
2023-03-03T16:12:09.290Z,54.97
2023-03-03T16:14:52.547Z,62.77
2023-03-03T16:17:57.141Z,59.93
2023-03-03T16:20:43.047Z,52.30
2023-03-03T16:23:23.327Z,52.83
2023-03-03T16:26:17.336Z,53.27
2023-03-03T16:29:14.201Z,55.27
2023-03-03T16:32:32.143Z,56.80
2023-03-03T16:35:24.814Z,61.60
2023-03-03T16:38:10.477Z,64.40
2023-03-03T16:40:49.725Z,58.83
2023-03-03T16:43:17.238Z,55.37
2023-03-03T16:45:45.976Z,58.53
2023-03-03T16:48:25.917Z,58.57
2023-03-03T16:51:19.822Z,64.23
2023-03-03T16:54:11.331Z,59.67
2023-03-03T16:56:52.016Z,63.47
2023-03-03T16:59:43.977Z,64.00
2023-03-03T17:02:56.034Z,65.17
2023-03-03T17:05:52.044Z,70.47
2023-03-03T17:08:40.704Z,61.60
2023-03-03T17:11:43.596Z,65.30
2023-03-03T17:14:36.234Z,63.23
2023-03-03T17:17:25.722Z,70.63
2023-03-03T17:20:45.028Z,68.63
2023-03-03T17:23:27.675Z,75.63
2023-03-03T17:26:31.705Z,72.23
2023-03-03T17:29:33.054Z,73.03
2023-03-03T17:32:31.646Z,68.47
2023-03-03T17:35:23.986Z,74.20
2023-03-03T17:38:16.728Z,68.53
2023-03-03T17:41:04.330Z,83.23
2023-03-03T17:44:02.595Z,79.07
2023-03-03T17:47:01.597Z,82.00
2023-03-03T17:49:43.901Z,77.23
2023-03-03T17:52:34.100Z,67.63
2023-03-03T17:55:16.513Z,71.13
2023-03-03T17:58:17.422Z,71.93
2023-03-03T18:00:50.605Z,65.33
2023-03-03T18:03:59.559Z,71.47
2023-03-03T18:06:35.796Z,69.93
2023-03-03T18:09:52.810Z,67.30
2023-03-03T18:12:47.649Z,68.67
2023-03-03T18:15:27.046Z,65.13
2023-03-03T18:18:21.497Z,74.23
2023-03-03T18:21:05.012Z,65.43
2023-03-03T18:23:42.107Z,60.83
2023-03-03T18:26:34.973Z,61.70
2023-03-03T18:29:19.651Z,57.97
2023-03-03T18:31:57.855Z,60.87
2023-03-03T18:34:28.283Z,65.55
2023-03-03T18:37:10.098Z,68.20
2023-03-03T18:40:10.089Z,59.20
2023-03-03T18:42:43.330Z,62.50
2023-03-03T18:45:18.087Z,68.07
2023-03-03T18:48:11.847Z,67.57
2023-03-03T18:50:48.008Z,66.03
2023-03-03T18:53:23.938Z,56.23
2023-03-03T18:55:57.906Z,64.00
2023-03-03T18:58:43.263Z,60.17
2023-03-03T19:01:31.471Z,61.00
2023-03-03T19:04:22.624Z,63.50
2023-03-03T19:06:49.992Z,65.40
2023-03-03T19:09:52.692Z,65.77
2023-03-03T19:12:53.595Z,51.93
2023-03-03T19:15:30.297Z,50.07
2023-03-03T19:18:23.967Z,45.93
2023-03-03T19:21:05.357Z,45.43
2023-03-03T19:23:54.465Z,41.20
2023-03-03T19:26:40.254Z,43.75
2023-03-03T19:29:49.273Z,51.93
2023-03-03T19:32:47.176Z,47.10
2023-03-03T19:36:03.337Z,40.80
2023-03-03T19:39:02.786Z,47.73
2023-03-03T19:42:04.919Z,54.33
2023-03-03T19:45:39.686Z,55.63
2023-03-03T19:48:39.433Z,57.73
2023-03-03T19:51:45.015Z,65.10
2023-03-03T19:54:57.700Z,62.53
2023-03-03T19:58:28.773Z,65.00
2023-03-03T20:01:19.964Z,68.97
2023-03-03T20:04:41.278Z,76.83
2023-03-03T20:07:31.446Z,78.83
2023-03-03T20:10:23.708Z,79.77
2023-03-03T20:13:20.898Z,85.47
2023-03-03T20:16:00.607Z,80.37
2023-03-03T20:19:06.564Z,82.60
2023-03-03T20:21:35.330Z,87.73
2023-03-03T20:24:24.913Z,82.27
2023-03-03T20:27:09.976Z,83.97
2023-03-03T20:29:55.296Z,90.27
2023-03-03T20:32:49.398Z,89.27
2023-03-03T20:35:38.041Z,93.47
2023-03-03T20:38:57.039Z,89.33
2023-03-03T20:42:05.936Z,95.60
2023-03-03T20:45:21.988Z,94.80
2023-03-03T20:48:15.503Z,84.60
2023-03-03T20:51:00.955Z,97.28
2023-03-03T20:53:36.507Z,98.70
2023-03-03T20:56:36.268Z,88.30
2023-03-03T20:59:29.802Z,86.97
2023-03-03T21:02:09.166Z,86.10
2023-03-03T21:04:37.131Z,76.13
2023-03-03T21:07:05.952Z,84.30
2023-03-03T21:09:39.277Z,82.40
2023-03-03T21:12:27.212Z,91.83
2023-03-03T21:15:27.684Z,90.27
2023-03-03T21:17:57.685Z,83.50
2023-03-03T21:20:32.590Z,78.00
2023-03-03T21:23:02.308Z,80.33
2023-03-03T21:25:41.872Z,81.07
2023-03-03T21:28:21.049Z,82.13
2023-03-03T21:31:15.935Z,79.57
2023-03-03T21:33:52.715Z,84.50
2023-03-03T21:36:37.122Z,75.10
2023-03-03T21:39:26.383Z,82.90
2023-03-03T21:41:55.505Z,78.27
2023-03-03T21:44:41.443Z,74.77
2023-03-03T21:47:30.921Z,79.50
2023-03-03T21:49:58.506Z,77.60
2023-03-03T21:52:25.822Z,68.87
2023-03-03T21:54:53.405Z,64.20
2023-03-03T21:57:20.747Z,59.77
2023-03-03T21:59:48.397Z,51.93
2023-03-03T22:02:15.838Z,56.17
2023-03-03T22:04:43.563Z,45.07
2023-03-03T22:07:11.612Z,57.33
2023-03-03T22:09:39.240Z,47.57
2023-03-03T22:12:07.855Z,44.67
2023-03-03T22:14:35.598Z,45.30
2023-03-03T22:17:03.476Z,47.73
2023-03-03T22:19:31.442Z,51.57
2023-03-03T22:21:58.706Z,49.77
2023-03-03T22:24:26.354Z,48.80
2023-03-03T22:26:53.650Z,48.70
2023-03-03T22:29:23.126Z,53.33
2023-03-03T22:31:51.341Z,52.10
2023-03-03T22:34:19.161Z,58.50
2023-03-03T22:36:46.435Z,61.40
2023-03-03T22:39:14.002Z,61.20
2023-03-03T22:41:41.301Z,58.97
2023-03-03T22:44:08.980Z,65.17
2023-03-03T22:46:36.409Z,68.27
2023-03-03T22:49:04.096Z,67.63
2023-03-03T22:51:31.467Z,65.03
2023-03-03T22:53:59.111Z,72.40
2023-03-03T22:56:26.368Z,69.60
2023-03-03T22:58:54.067Z,74.63
2023-03-03T23:01:21.452Z,69.17
2023-03-03T23:03:50.383Z,70.30
2023-03-03T23:06:17.770Z,64.70
2023-03-03T23:08:47.215Z,65.57
2023-03-03T23:11:14.518Z,67.00
2023-03-03T23:13:42.180Z,63.70
2023-03-03T23:16:09.486Z,69.07
2023-03-03T23:18:37.188Z,66.13
2023-03-03T23:21:05.258Z,69.33
2023-03-03T23:23:33.066Z,70.17
2023-03-03T23:26:00.909Z,104.10
2023-03-03T23:28:28.561Z,78.60
2023-03-03T23:30:55.866Z,72.20
2023-03-03T23:33:23.436Z,76.43
2023-03-03T23:35:50.757Z,73.70
2023-03-03T23:38:18.339Z,78.47
2023-03-03T23:40:48.724Z,69.97
2023-03-03T23:43:16.379Z,75.73
2023-03-03T23:45:43.839Z,71.57
2023-03-03T23:48:11.817Z,68.43
2023-03-03T23:50:39.366Z,70.13
2023-03-03T23:53:07.999Z,63.10
2023-03-03T23:55:36.368Z,63.63
2023-03-03T23:58:04.817Z,60.33
